Soldotna, AK

9:48 AM AKDT on July 28, 2016 (GMT -0800)
W. Corral PWS | | Change Station

Elev 110 ft 60.49 °N, 151.08 °W | Updated 5 seconds ago

Overcast
Overcast
73.6 °F
Feels Like 75 °F
N
1.6
Wind Variable Wind from SW
Gusts 1.6 mph

Today
High -- | Low -- °F
--% Chance of Precip.
Yesterday
High -- | Low -- °F
Precip. -- in
Pressure 29.85 in
Visibility 10.0 miles
Clouds Mostly Cloudy 8500 ft
Overcast 11000 ft
Heat Index 75 °F
Dew Point 65 °F
Humidity 74%
Rainfall 0.00 in
Snow Depth Not available.
5:33 AM 10:45 PM
Waning Crescent, 30% visible
METAR PAEN 281653Z 00000KT 10SM BKN085 OVC110 16/13 A2984 RMK AO2 RAB01E21 SLP106 P0001 T01560128
Pressure 29.85 in
Visibility 10.0 miles
Clouds Mostly Cloudy 8500 ft
Overcast 11000 ft
Heat Index 75 °F
Dew Point 65 °F
Humidity 74%
Rainfall 0.00 in
Snow Depth Not available.
5:33 AM 10:45 PM
Waning Crescent, 30% visible
METAR PAEN 281653Z 00000KT 10SM BKN085 OVC110 16/13 A2984 RMK AO2 RAB01E21 SLP106 P0001 T01560128

10-Day Weather Forecast

Almanac

Astronomy

Jul. 28, 2016 Rise Set
Actual Time
Civil Twilight
Nautical Twilight
Astronomical Twilight
Moon
Length of Visible Light
Length of Day
Tomorrow will be .
, % of the Moon is Illuminated

Today's Extremes

State Highs State Lows

Community

WunderPhotos

Upload Photos

1,928,163 photos uploaded!

WunderBlog® & News

Nearby

Air Quality

  Air Quality AQ Index Pollutant
Not available.

Snow Depth

Station Depth Elevation

Earthquake Activity

City Distance Mag. Time & Date
Minimum magnitude displayed is 2.5.

Coastal Water Temperatures

Place Temperature

Stations

Nearby Weather Stations

Station Location Temp. Windchill Dew Point Humidity Wind Precip. Elev Updated Type
                   

Watches & Warnings

There are currently no watches in effect.